Time;durP1;ratioP1;P1;durP2;ratioP2;P2;SDS_P1;SDS_P2;PMS_P1;PMS_P2;Temp;Humidity;BMP_temperature;BMP_pressure;BME280_temperature;BME280_humidity;BME280_pressure;Samples;Min_cycle;Max_cycle;Signal;HPM_P1;HPM_P2
2022/11/26 00:00:40;;;;;;;5.70;3.22;;;;;;;2.21;65.95;95284.91;5091955;28;20046;-69
2022/11/26 00:03:08;;;;;;;5.20;3.20;;;;;;;2.26;66.15;95282.13;5074893;28;20417;-69
2022/11/26 00:05:33;;;;;;;5.18;3.28;;;;;;;2.26;66.20;95283.00;5074894;28;20107;-69
2022/11/26 00:07:59;;;;;;;5.55;3.30;;;;;;;2.20;66.84;95291.78;5083326;28;20085;-69
2022/11/26 00:10:26;;;;;;;5.78;3.25;;;;;;;2.27;66.17;95283.81;5074652;28;20088;-69
2022/11/26 00:12:52;;;;;;;4.55;3.00;;;;;;;2.27;66.27;95282.06;5078224;28;20060;-69
2022/11/26 00:15:22;;;;;;;5.35;2.95;;;;;;;2.31;66.36;95283.59;5091627;28;20077;-70
2022/11/26 00:17:48;;;;;;;6.00;3.00;;;;;;;2.31;66.66;95282.78;5090454;28;20103;-70
2022/11/26 00:20:13;;;;;;;8.20;4.93;;;;;;;2.32;66.41;95287.03;5091501;28;20568;-70
2022/11/26 00:22:41;;;;;;;5.55;3.60;;;;;;;2.15;67.05;95273.19;5091348;28;20036;-70
2022/11/26 00:25:12;;;;;;;7.10;3.30;;;;;;;2.08;67.38;95271.78;5074083;28;20456;-69
2022/11/26 00:27:38;;;;;;;4.55;3.05;;;;;;;2.23;67.61;95273.69;5091334;28;20090;-69
2022/11/26 00:30:14;;;;;;;7.25;3.38;;;;;;;2.08;67.07;95274.34;5092543;28;20077;-69
2022/11/26 00:32:39;;;;;;;7.25;4.13;;;;;;;1.51;67.92;95281.78;5091193;28;20028;-69
2022/11/26 00:35:05;;;;;;;12.30;6.93;;;;;;;1.23;69.95;95284.63;5090581;28;20477;-69
2022/11/26 00:37:47;;;;;;;9.63;5.47;;;;;;;1.27;69.71;95254.59;5090664;28;20066;-70
2022/11/26 00:40:22;;;;;;;7.05;3.53;;;;;;;1.54;69.08;95278.28;5077776;28;20035;-70
2022/11/26 00:42:48;;;;;;;6.70;3.30;;;;;;;1.52;68.96;95272.38;5098288;28;20463;-69
2022/11/26 00:45:18;;;;;;;6.57;3.17;;;;;;;1.64;68.05;95286.41;5090989;28;20024;-69
2022/11/26 00:47:44;;;;;;;5.75;2.83;;;;;;;1.65;67.64;95288.94;5094840;28;20102;-70
2022/11/26 00:50:17;;;;;;;7.30;3.42;;;;;;;1.64;67.50;95278.72;5105877;28;20024;-68
2022/11/26 00:52:43;;;;;;;7.72;2.83;;;;;;;1.65;67.29;95282.97;5105435;28;20032;-68
2022/11/26 00:55:25;;;;;;;4.30;2.60;;;;;;;1.81;66.69;95286.56;5093342;28;20027;-68
2022/11/26 00:57:51;;;;;;;6.70;3.40;;;;;;;1.88;67.23;95294.84;5075085;28;20107;-69
2022/11/26 01:00:21;;;;;;;5.50;2.78;;;;;;;1.79;66.82;95289.19;5094855;28;20027;-68
2022/11/26 01:02:47;;;;;;;4.50;2.88;;;;;;;1.75;67.33;95277.38;5091719;28;20032;-69
2022/11/26 01:05:13;;;;;;;3.78;2.50;;;;;;;1.95;66.17;95291.97;5090662;28;20067;-69
2022/11/26 01:07:38;;;;;;;5.20;3.10;;;;;;;1.82;66.54;95279.72;5094022;28;20102;-69
2022/11/26 01:10:05;;;;;;;7.47;2.97;;;;;;;2.00;66.07;95291.75;5093942;28;20374;-69
2022/11/26 01:12:30;;;;;;;4.68;2.97;;;;;;;1.91;66.54;95280.16;5110770;28;20051;-69
2022/11/26 01:14:55;;;;;;;5.93;3.35;;;;;;;1.96;67.25;95295.34;5112008;28;20484;-69
2022/11/26 01:17:21;;;;;;;5.95;3.72;;;;;;;1.87;66.73;95303.44;5111767;28;20035;-69
2022/11/26 01:19:46;;;;;;;5.72;3.53;;;;;;;1.92;66.63;95309.19;5106794;28;20028;-69
2022/11/26 01:22:22;;;;;;;5.05;2.95;;;;;;;1.69;67.13;95307.56;5094472;28;20032;-69
2022/11/26 01:24:47;;;;;;;4.93;2.95;;;;;;;1.73;66.53;95319.38;5087833;28;20119;-69
2022/11/26 01:27:12;;;;;;;6.22;3.70;;;;;;;1.19;67.93;95318.88;5101162;28;20103;-69
2022/11/26 01:29:38;;;;;;;10.15;6.78;;;;;;;0.95;68.91;95314.69;5073119;28;20028;-69
2022/11/26 01:32:03;;;;;;;7.97;4.50;;;;;;;1.04;68.70;95314.34;5091065;28;20044;-69
2022/11/26 01:34:29;;;;;;;6.72;3.60;;;;;;;1.18;67.85;95327.47;5110041;28;20028;-69
2022/11/26 01:36:54;;;;;;;6.05;3.55;;;;;;;1.27;68.84;95328.84;5110370;28;20505;-69
2022/11/26 01:39:21;;;;;;;5.93;3.40;;;;;;;1.36;67.99;95331.03;5110276;28;20031;-71
2022/11/26 01:42:01;;;;;;;5.93;3.40;;;;;;;1.20;68.96;95327.38;5086065;28;20547;-70
2022/11/26 01:44:29;;;;;;;5.47;3.63;;;;;;;1.02;69.02;95321.25;5089774;28;20184;-69
2022/11/26 01:46:54;;;;;;;6.55;3.95;;;;;;;1.01;69.22;95322.16;5090914;28;20032;-69
2022/11/26 01:49:21;;;;;;;6.65;4.30;;;;;;;0.95;69.22;95327.47;5089773;28;20034;-69
2022/11/26 01:51:48;;;;;;;6.80;3.78;;;;;;;1.10;68.82;95329.47;5089833;28;20035;-69
2022/11/26 01:54:13;;;;;;;5.10;3.72;;;;;;;0.84;68.94;95333.84;5082202;28;20020;-69
2022/11/26 01:56:47;;;;;;;5.82;3.90;;;;;;;0.88;68.61;95330.25;5093307;28;20393;-69
2022/11/26 01:59:31;;;;;;;6.93;5.10;;;;;;;0.73;69.05;95320.59;5076326;28;20492;-69
2022/11/26 02:01:57;;;;;;;4.97;4.10;;;;;;;0.80;69.50;95323.75;5101681;28;20028;-69
2022/11/26 02:04:27;;;;;;;5.30;3.78;;;;;;;0.79;69.53;95330.59;5056004;28;20032;-68
2022/11/26 02:06:52;;;;;;;5.40;3.38;;;;;;;0.53;69.58;95325.59;5089655;28;20459;-69
2022/11/26 02:09:18;;;;;;;5.03;3.20;;;;;;;0.66;69.11;95335.31;5090985;28;20027;-68
2022/11/26 02:11:44;;;;;;;6.40;3.72;;;;;;;0.65;69.98;95327.72;5092355;28;20062;-69
2022/11/26 02:14:17;;;;;;;7.32;4.28;;;;;;;0.66;70.16;95344.72;5092767;28;20051;-69
2022/11/26 02:17:05;;;;;;;10.18;5.05;;;;;;;0.52;71.13;95316.25;5105879;28;20412;-68
2022/11/26 02:20:08;;;;;;;11.40;6.28;;;;;;;0.69;71.14;95336.94;5075152;28;20031;-68
2022/11/26 02:22:48;;;;;;;12.10;6.85;;;;;;;0.72;71.21;95326.59;5089747;28;20440;-69
2022/11/26 02:25:36;;;;;;;10.00;5.63;;;;;;;0.71;72.23;95334.34;5094132;28;20020;-69
2022/11/26 02:28:07;;;;;;;7.60;5.07;;;;;;;0.78;72.51;95326.41;5093617;28;20277;-68
2022/11/26 02:30:36;;;;;;;8.93;5.65;;;;;;;0.86;71.94;95314.16;5091046;28;20978;-68
2022/11/26 02:33:08;;;;;;;8.73;5.47;;;;;;;0.86;71.74;95323.53;5085842;28;20057;-69
2022/11/26 02:35:44;;;;;;;10.20;7.15;;;;;;;0.91;71.03;95328.50;5093626;28;20063;-69
2022/11/26 02:38:24;;;;;;;12.38;7.25;;;;;;;0.77;71.23;95327.25;5093813;28;20028;-68
2022/11/26 02:40:50;;;;;;;12.45;7.20;;;;;;;0.62;71.43;95332.94;5095619;28;20031;-68
2022/11/26 02:43:16;;;;;;;13.52;6.90;;;;;;;0.60;70.97;95324.50;5096781;28;20035;-69
2022/11/26 02:45:45;;;;;;;11.40;6.18;;;;;;;0.56;70.63;95328.06;5112226;28;20027;-69
2022/11/26 02:48:15;;;;;;;12.23;4.93;;;;;;;0.55;70.69;95337.44;5102986;28;20486;-69
2022/11/26 02:50:45;;;;;;;7.55;4.53;;;;;;;0.58;71.25;95336.47;5076428;28;20032;-69
2022/11/26 02:53:12;;;;;;;8.00;5.20;;;;;;;0.50;71.10;95326.53;5085952;28;20031;-68
2022/11/26 02:55:40;;;;;;;8.27;5.18;;;;;;;0.48;71.13;95336.00;5096902;28;20024;-69
2022/11/26 02:58:07;;;;;;;7.10;4.78;;;;;;;0.51;70.90;95335.06;5096678;28;20028;-69
2022/11/26 03:00:33;;;;;;;6.25;4.65;;;;;;;0.55;70.57;95336.59;5096514;28;20031;-69
2022/11/26 03:03:01;;;;;;;7.40;3.90;;;;;;;0.59;70.89;95338.16;5095366;28;20032;-69
2022/11/26 03:05:27;;;;;;;5.78;4.05;;;;;;;0.43;71.60;95323.34;5113261;28;20100;-69
2022/11/26 03:07:52;;;;;;;6.85;4.18;;;;;;;0.54;71.77;95334.94;5093967;28;20457;-69
2022/11/26 03:10:23;;;;;;;8.18;4.65;;;;;;;0.60;70.56;95340.66;5096254;28;20028;-69
2022/11/26 03:12:49;;;;;;;6.03;4.20;;;;;;;0.61;71.28;95331.25;5112997;28;20450;-69
2022/11/26 03:15:14;;;;;;;6.97;4.57;;;;;;;0.48;70.20;95319.81;5079116;28;20031;-69
2022/11/26 03:17:40;;;;;;;8.27;5.35;;;;;;;0.41;70.94;95348.13;5095965;28;20486;-69
2022/11/26 03:20:06;;;;;;;10.70;5.75;;;;;;;0.33;70.90;95352.66;5093957;28;20039;-69
2022/11/26 03:22:31;;;;;;;8.98;5.50;;;;;;;0.28;71.15;95361.38;5094104;28;20028;-69
2022/11/26 03:24:57;;;;;;;13.27;7.00;;;;;;;0.19;70.31;95360.81;5097202;28;20542;-69
2022/11/26 03:27:22;;;;;;;9.55;6.13;;;;;;;0.09;70.98;95356.09;5096009;28;20035;-69
2022/11/26 03:29:48;;;;;;;8.70;5.72;;;;;;;0.10;70.67;95367.97;5112814;28;20035;-69
2022/11/26 03:32:13;;;;;;;9.00;5.97;;;;;;;-0.02;70.91;95364.09;5112805;28;20039;-69
2022/11/26 03:34:39;;;;;;;10.55;5.95;;;;;;;0.01;71.16;95383.59;5110908;28;20034;-68
2022/11/26 03:37:04;;;;;;;7.93;4.97;;;;;;;-0.01;71.51;95375.97;5092266;28;20125;-69
2022/11/26 03:39:29;;;;;;;8.98;5.47;;;;;;;-0.08;71.67;95385.56;5092292;28;20024;-68
2022/11/26 03:41:55;;;;;;;10.65;5.65;;;;;;;-0.16;72.48;95387.53;5110289;28;20039;-68
2022/11/26 03:44:20;;;;;;;9.38;5.88;;;;;;;0.07;72.02;95391.06;5113473;28;20516;-68
2022/11/26 03:46:46;;;;;;;6.75;4.70;;;;;;;0.16;71.25;95395.84;5105419;28;20489;-69
2022/11/26 03:49:11;;;;;;;7.47;4.43;;;;;;;0.18;72.08;95399.19;5093268;28;20027;-68
2022/11/26 03:51:37;;;;;;;7.57;4.25;;;;;;;0.18;71.72;95396.66;5074867;28;20028;-68
2022/11/26 03:54:02;;;;;;;9.45;4.57;;;;;;;0.24;72.03;95404.09;5091981;28;20032;-69
2022/11/26 03:56:28;;;;;;;7.82;4.43;;;;;;;0.32;71.49;95397.03;5090880;28;20040;-69
2022/11/26 03:58:53;;;;;;;13.55;5.80;;;;;;;0.28;71.55;95407.38;5091913;28;20025;-69
2022/11/26 04:01:19;;;;;;;15.52;6.65;;;;;;;0.38;71.94;95401.09;5094253;28;20028;-69
2022/11/26 04:03:44;;;;;;;10.88;5.38;;;;;;;0.25;72.14;95389.59;5091674;28;20482;-69
2022/11/26 04:06:09;;;;;;;13.70;8.57;;;;;;;0.25;71.98;95399.81;5075157;28;20425;-69
2022/11/26 04:08:35;;;;;;;11.60;5.07;;;;;;;0.27;72.31;95406.56;5093306;28;20032;-69
2022/11/26 04:11:00;;;;;;;7.55;4.15;;;;;;;0.25;72.11;95405.75;5092976;28;20036;-69
2022/11/26 04:13:26;;;;;;;6.90;4.45;;;;;;;0.41;71.75;95412.03;5092848;28;20035;-69
2022/11/26 04:15:51;;;;;;;6.97;4.13;;;;;;;0.50;71.46;95415.16;5091637;28;20028;-69
2022/11/26 04:18:17;;;;;;;26.35;9.63;;;;;;;0.56;71.50;95428.59;5076026;28;20032;-69
2022/11/26 04:20:42;;;;;;;29.23;12.57;;;;;;;0.35;71.91;95417.38;5092676;28;20032;-68
2022/11/26 04:23:08;;;;;;;25.33;10.77;;;;;;;0.50;71.68;95435.63;5106856;28;20513;-69
2022/11/26 04:25:33;;;;;;;8.13;4.95;;;;;;;0.50;71.32;95440.75;5111715;28;20058;-68
2022/11/26 04:27:59;;;;;;;9.20;4.15;;;;;;;0.46;71.46;95444.31;5077857;28;20023;-69
2022/11/26 04:30:24;;;;;;;6.72;4.22;;;;;;;0.54;71.14;95432.09;5110066;28;20051;-68
2022/11/26 04:32:49;;;;;;;6.70;3.95;;;;;;;0.68;71.25;95445.25;5093154;28;20156;-69
2022/11/26 04:35:15;;;;;;;7.88;4.13;;;;;;;0.63;71.87;95444.56;5092318;28;20414;-68
2022/11/26 04:37:40;;;;;;;6.53;3.97;;;;;;;0.69;71.23;95440.97;5092311;28;20421;-69
2022/11/26 04:40:07;;;;;;;14.60;9.50;;;;;;;0.75;71.00;95446.69;5100627;28;20028;-69
2022/11/26 04:42:32;;;;;;;8.43;6.25;;;;;;;0.76;70.48;95456.06;5094550;28;20430;-69
2022/11/26 04:44:57;;;;;;;10.38;6.20;;;;;;;0.69;71.82;95458.88;5110931;28;20042;-69
2022/11/26 04:47:23;;;;;;;10.75;7.20;;;;;;;0.65;71.71;95470.94;5093977;28;20490;-69
2022/11/26 04:49:48;;;;;;;10.40;6.25;;;;;;;0.83;71.15;95467.72;5090750;28;20547;-69
2022/11/26 04:52:14;;;;;;;6.53;3.92;;;;;;;0.82;70.86;95470.34;5092918;28;20417;-69
2022/11/26 04:54:39;;;;;;;9.75;4.55;;;;;;;0.97;71.02;95469.81;5092241;28;20043;-69
2022/11/26 04:57:05;;;;;;;7.30;4.30;;;;;;;0.93;70.95;95475.94;5091356;28;20065;-69
2022/11/26 04:59:30;;;;;;;6.28;3.50;;;;;;;1.03;70.31;95484.13;5090632;28;20030;-69
2022/11/26 05:01:55;;;;;;;9.55;5.47;;;;;;;0.94;70.80;95481.88;5090978;28;20032;-69
2022/11/26 05:04:21;;;;;;;8.30;4.88;;;;;;;1.01;70.94;95484.19;5089093;28;20508;-69
2022/11/26 05:06:46;;;;;;;8.27;4.55;;;;;;;1.02;70.58;95485.00;5066057;28;20425;-69
2022/11/26 05:09:12;;;;;;;10.48;5.35;;;;;;;0.93;71.10;95480.22;5089559;28;20481;-69
2022/11/26 05:11:37;;;;;;;34.33;16.67;;;;;;;0.94;71.79;95480.16;5109187;28;20130;-69
2022/11/26 05:14:03;;;;;;;12.57;7.22;;;;;;;0.92;72.17;95473.41;5108952;28;20035;-69
2022/11/26 05:16:28;;;;;;;12.88;7.72;;;;;;;1.13;71.79;95482.91;5089035;28;20050;-68
2022/11/26 05:18:54;;;;;;;14.75;7.35;;;;;;;1.22;72.00;95487.69;5093121;28;20051;-69
2022/11/26 05:21:19;;;;;;;11.18;6.32;;;;;;;1.22;71.73;95486.88;5111457;28;20031;-69
2022/11/26 05:23:44;;;;;;;10.82;7.00;;;;;;;1.23;72.67;95489.38;5093654;28;20127;-69
2022/11/26 05:26:10;;;;;;;11.13;7.10;;;;;;;1.26;72.18;95489.28;5110292;28;20031;-69
2022/11/26 05:28:35;;;;;;;15.73;6.88;;;;;;;1.18;72.28;95498.94;5110571;28;20490;-69
2022/11/26 05:31:01;;;;;;;12.38;7.05;;;;;;;1.19;72.35;95497.22;5107129;28;20027;-69
2022/11/26 05:33:27;;;;;;;20.70;12.35;;;;;;;0.95;73.03;95497.19;5073780;28;20028;-69
2022/11/26 05:35:52;;;;;;;17.10;10.55;;;;;;;1.03;72.78;95496.91;5090860;28;20032;-69
2022/11/26 05:38:18;;;;;;;13.38;8.68;;;;;;;1.10;73.49;95500.94;5072149;28;20025;-69
2022/11/26 05:40:43;;;;;;;13.63;8.77;;;;;;;1.30;73.48;95508.75;5090706;28;20077;-69
2022/11/26 05:43:12;;;;;;;16.70;8.57;;;;;;;1.19;72.95;95508.28;5088962;28;20039;-69
2022/11/26 05:45:37;;;;;;;12.32;7.88;;;;;;;1.23;72.52;95504.75;5072662;28;20043;-69
2022/11/26 05:48:03;;;;;;;12.07;7.07;;;;;;;1.33;72.41;95515.47;5071893;28;20036;-69
2022/11/26 05:50:28;;;;;;;12.38;7.65;;;;;;;1.30;72.33;95513.03;5088799;28;20039;-69
2022/11/26 05:52:54;;;;;;;9.23;6.80;;;;;;;1.25;72.25;95512.34;5088824;28;20028;-69
2022/11/26 05:55:19;;;;;;;13.23;8.25;;;;;;;1.38;72.10;95512.75;5093594;28;20035;-69
2022/11/26 05:57:44;;;;;;;13.88;8.30;;;;;;;1.32;72.58;95511.25;5099574;28;20061;-69
2022/11/26 06:00:10;;;;;;;13.60;7.47;;;;;;;1.35;72.44;95521.38;5086435;28;20035;-69
2022/11/26 06:02:37;;;;;;;16.25;8.13;;;;;;;1.34;72.56;95519.72;5101636;28;20122;-70
2022/11/26 06:05:12;;;;;;;13.55;7.30;;;;;;;1.48;72.71;95521.81;5085417;28;20504;-70
2022/11/26 06:07:37;;;;;;;28.67;15.95;;;;;;;1.60;72.42;95525.63;5087571;28;20104;-70
2022/11/26 06:10:03;;;;;;;13.02;7.47;;;;;;;1.59;72.85;95518.81;5070309;28;20035;-70
2022/11/26 06:12:29;;;;;;;11.57;6.60;;;;;;;1.76;72.44;95526.75;5091697;28;20055;-69
2022/11/26 06:14:54;;;;;;;9.55;6.20;;;;;;;1.75;72.84;95527.63;5105150;28;20516;-69
2022/11/26 06:17:20;;;;;;;12.32;6.63;;;;;;;1.73;72.29;95524.31;5107550;27;20028;-70
2022/11/26 06:19:45;;;;;;;13.05;7.75;;;;;;;1.89;72.40;95533.06;5109772;28;20035;-70
2022/11/26 06:22:11;;;;;;;13.32;8.07;;;;;;;1.93;72.31;95531.25;5105236;27;20039;-70
2022/11/26 06:24:36;;;;;;;10.50;6.35;;;;;;;1.85;72.86;95533.25;5101750;28;20454;-70
2022/11/26 06:27:02;;;;;;;13.25;8.23;;;;;;;1.91;72.45;95533.84;5090567;28;20031;-70
2022/11/26 06:29:27;;;;;;;20.50;11.57;;;;;;;1.99;72.39;95531.00;5108087;28;20783;-70
2022/11/26 06:31:52;;;;;;;12.35;6.97;;;;;;;1.97;72.26;95537.91;5103530;27;20036;-71
2022/11/26 06:34:18;;;;;;;9.55;5.70;;;;;;;2.08;70.59;95530.66;5107476;28;20035;-70
2022/11/26 06:36:43;;;;;;;9.75;5.65;;;;;;;2.11;70.48;95527.13;5107963;27;20055;-71
2022/11/26 06:39:09;;;;;;;10.35;5.25;;;;;;;2.17;70.38;95532.88;5105941;28;20031;-70
2022/11/26 06:41:35;;;;;;;10.43;6.03;;;;;;;2.11;70.54;95525.41;5078265;28;20519;-70
2022/11/26 06:44:00;;;;;;;9.98;6.38;;;;;;;2.14;70.62;95527.84;5070696;28;20035;-71
2022/11/26 06:46:26;;;;;;;12.60;8.55;;;;;;;2.18;70.55;95526.84;5106373;27;20032;-71
2022/11/26 06:48:51;;;;;;;13.60;7.45;;;;;;;2.27;71.07;95537.63;5086245;28;20032;-71
2022/11/26 06:51:20;;;;;;;14.70;7.63;;;;;;;2.42;69.93;95526.78;5108985;27;20020;-71
2022/11/26 06:53:46;;;;;;;12.15;8.27;;;;;;;2.59;69.33;95532.09;5084336;28;20500;-70
2022/11/26 06:56:12;;;;;;;12.13;8.18;;;;;;;2.52;69.46;95525.50;5087454;27;20027;-71
2022/11/26 06:58:38;;;;;;;12.38;7.15;;;;;;;2.54;68.93;95523.72;5087074;28;20036;-71
2022/11/26 07:01:10;;;;;;;13.55;7.97;;;;;;;2.59;68.86;95537.22;5088399;27;20466;-72
2022/11/26 07:03:36;;;;;;;17.42;9.63;;;;;;;2.79;68.92;95538.16;5088275;28;20031;-72
2022/11/26 07:06:02;;;;;;;15.63;9.00;;;;;;;2.82;68.70;95535.44;5089314;27;20173;-71
2022/11/26 07:08:27;;;;;;;12.52;8.45;;;;;;;2.84;68.53;95516.53;5106681;28;20478;-70
2022/11/26 07:10:52;;;;;;;12.40;7.18;;;;;;;3.04;68.95;95543.94;5087410;28;20043;-70
2022/11/26 07:13:18;;;;;;;9.82;6.88;;;;;;;3.03;68.93;95536.28;5104162;28;20176;-70
2022/11/26 07:15:43;;;;;;;11.07;6.28;;;;;;;3.09;68.57;95536.88;5104254;27;20043;-69
2022/11/26 07:18:09;;;;;;;16.10;10.82;;;;;;;3.10;68.01;95541.09;5105999;27;20027;-70
2022/11/26 07:20:35;;;;;;;15.82;13.40;;;;;;;3.13;67.67;95535.84;5101658;27;20108;-70
2022/11/26 07:23:01;;;;;;;12.52;9.02;;;;;;;3.08;67.31;95542.88;5092264;28;20036;-69
2022/11/26 07:25:28;;;;;;;12.35;7.40;;;;;;;3.13;67.91;95537.56;5072460;28;20040;-69
2022/11/26 07:27:53;;;;;;;9.05;6.65;;;;;;;3.03;68.46;95549.13;5105597;27;20032;-70
2022/11/26 07:30:19;;;;;;;10.32;7.00;;;;;;;3.15;68.31;95535.78;5107542;28;20031;-70
2022/11/26 07:32:44;;;;;;;11.45;7.15;;;;;;;3.33;67.66;95534.97;5110399;27;20035;-69
2022/11/26 07:35:10;;;;;;;12.38;8.18;;;;;;;3.47;66.95;95547.22;5108626;28;20032;-69
2022/11/26 07:37:35;;;;;;;31.85;12.98;;;;;;;3.41;66.93;95544.94;5108783;27;20035;-70
2022/11/26 07:40:01;;;;;;;24.13;14.85;;;;;;;3.48;66.22;95548.91;5108359;28;20043;-69
2022/11/26 07:42:29;;;;;;;18.15;12.20;;;;;;;3.43;65.97;95550.84;5105720;28;20043;-71
2022/11/26 07:44:55;;;;;;;14.02;10.15;;;;;;;3.27;66.43;95555.78;5105527;28;20044;-70
2022/11/26 07:47:20;;;;;;;15.07;9.85;;;;;;;3.27;66.99;95560.94;5110142;27;20028;-70
2022/11/26 07:49:46;;;;;;;13.52;9.50;;;;;;;3.25;67.34;95560.16;5108245;28;20282;-70
2022/11/26 07:52:11;;;;;;;12.18;8.23;;;;;;;3.13;67.56;95571.78;5110137;27;20031;-70
2022/11/26 07:54:37;;;;;;;12.32;8.82;;;;;;;3.26;67.63;95572.13;5102801;27;20111;-70
2022/11/26 07:57:02;;;;;;;12.73;9.10;;;;;;;3.35;67.64;95569.16;5101205;27;20683;-70
2022/11/26 07:59:27;;;;;;;17.48;12.02;;;;;;;3.50;67.26;95571.97;5109129;28;20077;-70
2022/11/26 08:01:53;;;;;;;15.30;10.63;;;;;;;3.49;67.50;95576.25;5089061;28;20417;-70
2022/11/26 08:04:18;;;;;;;14.55;9.30;;;;;;;3.65;66.75;95573.88;5109170;28;20031;-70
2022/11/26 08:06:44;;;;;;;13.93;10.10;;;;;;;3.65;66.84;95566.16;5107233;27;20039;-70
2022/11/26 08:09:09;;;;;;;14.40;9.82;;;;;;;3.80;66.01;95567.22;5100653;28;20024;-70
2022/11/26 08:11:35;;;;;;;14.27;9.93;;;;;;;3.85;65.39;95567.84;5085499;28;20495;-68
2022/11/26 08:14:05;;;;;;;13.00;9.63;;;;;;;3.80;66.27;95559.50;5106135;28;20306;-70
2022/11/26 08:16:31;;;;;;;12.98;8.55;;;;;;;3.69;66.24;95572.00;5101686;27;20134;-70
2022/11/26 08:18:59;;;;;;;11.57;7.70;;;;;;;3.62;65.85;95562.88;5105823;27;20038;-70
2022/11/26 08:21:24;;;;;;;11.43;8.70;;;;;;;3.75;66.09;95553.72;5102927;28;20028;-70
2022/11/26 08:23:50;;;;;;;12.50;9.50;;;;;;;3.83;66.25;95556.81;5100430;28;20112;-71
2022/11/26 08:26:16;;;;;;;14.95;8.95;;;;;;;4.02;66.32;95567.09;5085826;28;20573;-70
2022/11/26 08:28:42;;;;;;;15.63;10.00;;;;;;;4.23;65.55;95571.28;5101178;28;20555;-70
2022/11/26 08:31:08;;;;;;;14.98;8.88;;;;;;;4.29;65.57;95571.88;5101301;27;20028;-70
2022/11/26 08:33:34;;;;;;;13.63;9.45;;;;;;;4.25;65.57;95566.03;5085663;28;20031;-70
2022/11/26 08:36:00;;;;;;;14.10;9.95;;;;;;;4.29;65.54;95572.72;5085559;28;20484;-71
2022/11/26 08:38:26;;;;;;;18.20;12.20;;;;;;;4.41;64.97;95567.00;5083668;28;20110;-71
2022/11/26 08:40:53;;;;;;;12.70;9.60;;;;;;;4.39;64.28;95552.53;5086283;28;20052;-70
2022/11/26 08:43:21;;;;;;;13.82;9.43;;;;;;;4.61;63.45;95578.09;5103906;28;20023;-70
2022/11/26 08:45:59;;;;;;;14.10;9.75;;;;;;;4.58;63.25;95570.53;5085513;28;20401;-70
2022/11/26 08:48:25;;;;;;;18.05;13.60;;;;;;;4.54;63.21;95567.28;5099568;28;20036;-72
2022/11/26 08:50:55;;;;;;;24.30;17.58;;;;;;;4.60;63.01;95571.31;5101131;28;20027;-71
2022/11/26 08:53:20;;;;;;;26.42;15.85;;;;;;;4.69;62.91;95581.97;5107421;28;20081;-71
2022/11/26 08:55:46;;;;;;;22.10;13.93;;;;;;;4.79;62.92;95586.69;5101047;28;20428;-71
2022/11/26 08:58:11;;;;;;;16.15;9.90;;;;;;;4.53;62.21;95536.47;5105742;27;20497;-71
2022/11/26 09:00:37;;;;;;;16.83;11.60;;;;;;;4.68;62.46;95575.19;5101564;28;20171;-72
2022/11/26 09:03:02;;;;;;;18.17;11.55;;;;;;;4.78;62.55;95585.03;5105219;27;20528;-71
2022/11/26 09:05:28;;;;;;;14.18;9.85;;;;;;;4.18;63.36;95577.50;5100529;28;20548;-72
2022/11/26 09:07:53;;;;;;;14.35;10.75;;;;;;;4.59;62.84;95582.47;5104286;27;20462;-72
2022/11/26 09:10:19;;;;;;;14.07;10.10;;;;;;;4.53;63.17;95568.16;5101931;28;20444;-68
2022/11/26 09:12:45;;;;;;;16.35;11.13;;;;;;;4.53;63.63;95577.63;5089097;28;20475;-69
2022/11/26 09:15:10;;;;;;;17.65;12.45;;;;;;;4.90;63.14;95579.28;5085358;28;20032;-68
2022/11/26 09:17:35;;;;;;;18.33;11.65;;;;;;;4.88;62.50;95579.38;5098521;27;20028;-68
2022/11/26 09:20:01;;;;;;;17.80;13.18;;;;;;;4.82;62.63;95583.97;5094932;28;20040;-68
2022/11/26 09:22:26;;;;;;;18.73;13.68;;;;;;;4.97;63.10;95584.97;5103529;27;20035;-68
2022/11/26 09:24:52;;;;;;;29.05;18.75;;;;;;;4.96;62.81;95527.50;5101884;28;20032;-68
2022/11/26 09:27:17;;;;;;;39.75;26.27;;;;;;;5.21;62.52;95563.19;5102276;28;20031;-68
2022/11/26 09:29:43;;;;;;;24.17;16.60;;;;;;;5.40;61.59;95578.53;5101448;28;20100;-68
2022/11/26 09:32:08;;;;;;;18.65;12.88;;;;;;;5.37;60.86;95563.22;5089203;28;20244;-68
2022/11/26 09:34:37;;;;;;;17.58;11.85;;;;;;;5.53;60.96;95568.44;5107039;28;20039;-68
2022/11/26 09:37:02;;;;;;;19.15;13.30;;;;;;;5.69;60.85;95574.47;5104586;28;20510;-68
2022/11/26 09:39:28;;;;;;;19.58;14.18;;;;;;;5.62;60.51;95567.13;5101633;28;20038;-68
2022/11/26 09:42:12;;;;;;;22.38;14.63;;;;;;;5.30;61.63;95567.03;5102622;28;20044;-69
2022/11/26 09:44:46;;;;;;;19.42;13.75;;;;;;;5.13;60.79;95563.53;5104170;28;20050;-68
2022/11/26 09:47:12;;;;;;;20.58;14.07;;;;;;;5.05;61.79;95557.13;5083417;28;20043;-68
2022/11/26 09:50:12;;;;;;;21.00;15.25;;;;;;;4.84;62.44;95562.38;5084632;28;20035;-68
2022/11/26 09:52:58;;;;;;;21.55;14.82;;;;;;;5.15;62.00;95560.88;5106318;27;20059;-68
2022/11/26 09:55:24;;;;;;;22.92;14.82;;;;;;;5.12;61.70;95548.16;5105348;28;20031;-68
2022/11/26 09:58:17;;;;;;;20.20;13.80;;;;;;;5.53;60.06;95552.97;5102958;28;20176;-68
2022/11/26 10:00:47;;;;;;;22.15;15.18;;;;;;;5.64;60.62;95542.13;5103506;28;20043;-67
2022/11/26 10:03:14;;;;;;;21.80;14.80;;;;;;;5.85;59.86;95548.75;5103119;27;20040;-68
2022/11/26 10:05:51;;;;;;;23.33;15.50;;;;;;;5.88;59.91;95542.56;5085959;28;20396;-67
2022/11/26 10:08:26;;;;;;;22.00;15.05;;;;;;;5.76;60.11;95529.41;5102383;28;20531;-66
2022/11/26 10:11:06;;;;;;;24.30;15.30;;;;;;;5.78;59.25;95527.59;5104022;28;20134;-68
2022/11/26 10:13:40;;;;;;;23.65;15.15;;;;;;;5.75;59.96;95525.16;5082474;28;20032;-68
2022/11/26 10:16:28;;;;;;;20.58;14.77;;;;;;;6.00;59.10;95529.91;5095826;28;20039;-67
2022/11/26 10:19:12;;;;;;;22.85;15.57;;;;;;;6.29;58.53;95526.66;5090573;28;20452;-67
2022/11/26 10:21:42;;;;;;;21.95;15.77;;;;;;;6.37;58.29;95527.06;5106791;28;20831;-68
2022/11/26 10:24:24;;;;;;;24.83;15.32;;;;;;;6.53;57.83;95517.56;5074225;28;20088;-68
2022/11/26 10:26:49;;;;;;;;;;;;;;;6.56;57.59;95530.28;5085379;28;20526;-67
2022/11/26 10:29:25;;;;;;;21.60;13.90;;;;;;;6.38;57.43;95526.13;5101590;28;19926;-67
2022/11/26 10:32:04;;;;;;;52.65;28.30;;;;;;;6.55;57.28;95504.59;5108914;28;20544;-68
2022/11/26 10:34:36;;;;;;;28.00;17.20;;;;;;;6.40;57.85;95514.81;5088340;28;20122;-67
2022/11/26 10:37:02;;;;;;;21.10;15.02;;;;;;;6.42;57.67;95509.59;5095078;28;20039;-67
2022/11/26 10:39:29;;;;;;;24.50;15.13;;;;;;;6.66;56.75;95503.06;5105019;28;20106;-68
2022/11/26 10:41:55;;;;;;;42.67;26.05;;;;;;;6.79;56.10;95502.34;5098047;28;20040;-66
2022/11/26 10:44:30;;;;;;;32.70;21.38;;;;;;;6.93;55.50;95512.72;5110247;28;20445;-67
2022/11/26 10:46:56;;;;;;;36.38;20.75;;;;;;;6.91;55.74;95509.41;5130959;27;20049;-66
2022/11/26 10:49:23;;;;;;;22.98;14.60;;;;;;;6.85;55.86;95502.00;5106909;28;20038;-67
2022/11/26 10:51:50;;;;;;;60.92;33.65;;;;;;;6.82;56.30;95489.25;5101396;28;20439;-67
2022/11/26 10:54:25;;;;;;;41.80;25.63;;;;;;;7.06;55.93;95508.53;5097543;28;20093;-66
2022/11/26 10:56:52;;;;;;;46.83;30.30;;;;;;;7.06;55.75;95498.19;5105467;28;20066;-66
2022/11/26 10:59:40;;;;;;;38.83;25.38;;;;;;;7.16;55.81;95508.84;5096344;28;20019;-66
2022/11/26 11:02:35;;;;;;;29.42;17.33;;;;;;;7.19;55.32;95505.22;5088944;28;20043;-68
2022/11/26 11:05:03;;;;;;;25.02;15.63;;;;;;;7.21;55.21;95487.88;5118007;27;20031;-68
2022/11/26 11:07:35;;;;;;;22.55;15.57;;;;;;;7.26;54.71;95509.94;5087976;28;20042;-68
2022/11/26 11:10:23;;;;;;;25.40;16.13;;;;;;;7.21;55.15;95511.13;5101945;27;20024;-67
2022/11/26 11:13:00;;;;;;;25.60;15.60;;;;;;;7.33;55.11;95515.59;5093568;28;20048;-68
2022/11/26 11:15:28;;;;;;;22.50;16.33;;;;;;;7.22;55.29;95515.41;5108281;28;20438;-67
2022/11/26 11:17:58;;;;;;;22.90;16.25;;;;;;;7.21;55.19;95506.78;5084475;28;20414;-67
2022/11/26 11:20:27;;;;;;;23.20;15.25;;;;;;;7.39;54.13;95510.06;5080403;28;20024;-67
2022/11/26 11:23:16;;;;;;;25.55;16.70;;;;;;;7.15;55.47;95513.16;5071550;28;20104;-68
2022/11/26 11:25:45;;;;;;;25.52;16.20;;;;;;;7.15;55.69;95501.97;5106655;28;20046;-67
2022/11/26 11:28:20;;;;;;;23.48;16.02;;;;;;;6.84;56.12;95508.09;5107709;28;20086;-67
2022/11/26 11:30:45;;;;;;;26.80;16.70;;;;;;;6.93;55.94;95517.88;5087218;27;20066;-67
2022/11/26 11:33:19;;;;;;;24.70;16.70;;;;;;;6.69;56.81;95508.03;5094486;28;20032;-67
2022/11/26 11:36:14;;;;;;;25.55;16.75;;;;;;;6.69;56.70;95513.22;5110960;28;20360;-67
2022/11/26 11:38:57;;;;;;;22.75;16.08;;;;;;;6.52;57.04;95505.59;5109418;28;20047;-67